createdAt,value
2022-09-01T02:33:44.358Z,0
2022-09-01T02:34:44.338Z,0
2022-09-01T02:35:44.341Z,0
2022-09-01T02:36:44.332Z,0
2022-09-01T02:37:44.354Z,0
2022-09-01T02:40:44.412Z,0
2022-09-01T02:41:44.326Z,0
2022-09-01T02:42:44.362Z,0
2022-09-01T02:43:44.331Z,0
2022-09-01T02:44:44.326Z,0
2022-09-01T02:45:44.366Z,0
2022-09-01T02:46:44.331Z,0
2022-09-01T02:47:44.353Z,0
2022-09-01T02:48:44.329Z,0
2022-09-01T02:49:44.328Z,0
2022-09-01T02:50:44.336Z,0
2022-09-01T02:51:44.338Z,0
2022-09-01T02:52:44.338Z,0
2022-09-01T02:53:44.331Z,0
2022-09-01T02:54:44.321Z,0
2022-09-01T02:55:44.346Z,0
2022-09-01T02:56:44.332Z,0
2022-09-01T02:57:44.350Z,0
2022-09-01T02:58:44.325Z,0
2022-09-01T02:59:44.331Z,0
2022-09-01T03:00:44.351Z,0
2022-09-01T03:01:44.329Z,0
2022-09-01T03:02:44.353Z,0
2022-09-01T03:03:44.335Z,0
2022-09-01T03:04:44.381Z,0
2022-09-01T03:05:44.323Z,0
2022-09-01T03:06:44.330Z,0
2022-09-01T03:07:44.349Z,0
2022-09-01T03:08:44.336Z,0
2022-09-01T03:09:44.328Z,0
2022-09-01T03:10:44.352Z,0
2022-09-01T03:11:44.343Z,0
2022-09-01T03:12:44.352Z,0
2022-09-01T03:13:44.342Z,0
2022-09-01T03:14:44.345Z,0
2022-09-01T03:15:44.352Z,0
2022-09-01T03:16:44.417Z,0
2022-09-01T03:17:44.370Z,0
2022-09-01T03:18:44.355Z,0
2022-09-01T03:19:44.375Z,0
2022-09-01T03:20:44.348Z,0
2022-09-01T03:21:44.348Z,0
2022-09-01T03:22:44.359Z,0
2022-09-01T03:23:44.343Z,0
2022-09-01T03:24:44.346Z,0
2022-09-01T03:25:44.360Z,0
2022-09-01T03:26:44.342Z,0
2022-09-01T03:27:44.359Z,0
2022-09-01T03:28:44.345Z,0
2022-09-01T03:29:44.342Z,0
2022-09-01T03:30:44.363Z,0
2022-09-01T03:31:44.427Z,0
2022-09-01T03:32:44.385Z,0
2022-09-01T03:33:44.347Z,0
2022-09-01T03:34:44.342Z,0
2022-09-01T03:35:44.350Z,0
2022-09-01T03:36:44.349Z,0
2022-09-01T03:37:44.366Z,0
2022-09-01T03:38:44.457Z,0
2022-09-01T03:39:44.348Z,0
2022-09-01T03:40:44.415Z,0
2022-09-01T03:41:44.357Z,0
2022-09-01T03:42:44.370Z,0
2022-09-01T03:43:46.878Z,0
2022-09-01T03:44:50.182Z,0
2022-09-01T03:45:49.038Z,0
2022-09-01T03:46:48.950Z,0
2022-09-01T03:47:48.972Z,1
2022-09-01T03:48:48.960Z,1
2022-09-01T03:49:48.950Z,3
2022-09-01T03:50:48.947Z,3
2022-09-01T03:51:48.962Z,5
2022-09-01T03:52:48.978Z,7
2022-09-01T03:53:48.947Z,9
2022-09-01T03:54:48.956Z,9
2022-09-01T03:55:48.977Z,11
2022-09-01T03:56:48.949Z,14
2022-09-01T03:57:48.960Z,16
2022-09-01T03:58:48.944Z,18
2022-09-01T03:59:48.953Z,23
2022-09-01T04:00:49.086Z,27
2022-09-01T04:01:48.993Z,33
2022-09-01T04:02:48.961Z,38
2022-09-01T04:03:49.187Z,44
2022-09-01T04:04:48.951Z,51
2022-09-01T04:05:48.971Z,60
2022-09-01T04:06:48.943Z,68
2022-09-01T04:07:48.968Z,68
2022-09-01T04:08:48.956Z,88
2022-09-01T04:09:48.951Z,101
2022-09-01T04:10:48.967Z,112
2022-09-01T04:11:48.955Z,125
2022-09-01T04:12:48.964Z,140
2022-09-01T04:13:48.947Z,151
2022-09-01T04:14:48.958Z,167
2022-09-01T04:15:48.959Z,180
2022-09-01T04:16:48.996Z,195
2022-09-01T04:17:49.171Z,210
2022-09-01T04:18:48.948Z,226
2022-09-01T04:19:48.944Z,246
2022-09-01T04:20:48.935Z,267
2022-09-01T04:21:48.933Z,291
2022-09-01T04:22:48.942Z,317
2022-09-01T04:23:48.938Z,340
2022-09-01T04:24:48.946Z,368
2022-09-01T04:25:48.956Z,398
2022-09-01T04:26:48.992Z,427
2022-09-01T04:27:48.974Z,458
2022-09-01T04:28:48.940Z,490
2022-09-01T04:29:48.934Z,519
2022-09-01T04:30:48.969Z,551
2022-09-01T04:31:49.052Z,582
2022-09-01T04:32:48.951Z,617
2022-09-01T04:33:48.945Z,658
2022-09-01T04:34:48.927Z,709
2022-09-01T04:35:48.921Z,757
2022-09-01T04:36:49.993Z,801
2022-09-01T04:37:48.946Z,846
2022-09-01T04:38:48.918Z,888
2022-09-01T04:39:53.705Z,934
2022-09-01T04:40:48.970Z,971
2022-09-01T04:41:48.925Z,1010
2022-09-01T04:42:48.924Z,1043
2022-09-01T04:43:48.910Z,1087
2022-09-01T04:44:48.939Z,1131
2022-09-01T04:45:48.961Z,1179
2022-09-01T04:46:48.912Z,1225
2022-09-01T04:47:48.954Z,1271
2022-09-01T04:48:48.928Z,1308
2022-09-01T04:49:48.934Z,1356
2022-09-01T04:50:48.926Z,1404
2022-09-01T04:51:52.572Z,1443
2022-09-01T04:52:48.950Z,1483
2022-09-01T04:53:49.045Z,1528
2022-09-01T04:54:48.938Z,1566
2022-09-01T04:55:49.895Z,1599
2022-09-01T04:56:48.927Z,1644
2022-09-01T04:57:48.948Z,1681
2022-09-01T04:58:48.935Z,1727
2022-09-01T04:59:48.933Z,1776
2022-09-01T05:00:48.979Z,1822
2022-09-01T05:01:48.957Z,1874
2022-09-01T05:02:48.950Z,1926
2022-09-01T05:03:48.934Z,1977
2022-09-01T05:04:48.927Z,2023
2022-09-01T05:05:48.941Z,2073
2022-09-01T05:06:48.927Z,2108
2022-09-01T05:07:48.946Z,2108
2022-09-01T05:08:48.931Z,2178
2022-09-01T05:09:48.934Z,2204
2022-09-01T05:10:48.927Z,2252
2022-09-01T05:11:48.925Z,2281
2022-09-01T05:12:48.943Z,2302
2022-09-01T05:13:48.930Z,2335
2022-09-01T05:14:49.013Z,2335
2022-09-01T05:15:48.916Z,2333
2022-09-01T05:16:48.956Z,2355
2022-09-01T05:17:48.943Z,2372
2022-09-01T05:18:48.956Z,2398
2022-09-01T05:19:48.934Z,2429
2022-09-01T05:20:48.922Z,2429
2022-09-01T05:21:48.927Z,2418
2022-09-01T05:22:48.950Z,2436
2022-09-01T05:23:48.930Z,2447
2022-09-01T05:24:48.918Z,2477
2022-09-01T05:25:48.950Z,2469
2022-09-01T05:26:48.935Z,2484
2022-09-01T05:27:48.937Z,2497
2022-09-01T05:28:48.935Z,2523
2022-09-01T05:29:48.923Z,2569
2022-09-01T05:30:48.908Z,2591
2022-09-01T05:31:50.327Z,2619
2022-09-01T05:32:48.932Z,2644
2022-09-01T05:33:48.924Z,2637
2022-09-01T05:34:48.922Z,2672
2022-09-01T05:35:48.928Z,2659
2022-09-01T05:36:48.906Z,2674
2022-09-01T05:37:48.937Z,2683
2022-09-01T05:38:48.926Z,2727
2022-09-01T05:39:48.933Z,2715
2022-09-01T05:40:48.965Z,2689
2022-09-01T05:41:48.929Z,2670
2022-09-01T05:42:48.940Z,2941
2022-09-01T05:43:48.929Z,2770
2022-09-01T05:44:48.910Z,3362
2022-09-01T05:46:05.758Z,3408
2022-09-01T05:46:48.953Z,3992
2022-09-01T05:47:48.920Z,3972
2022-09-01T05:48:48.910Z,3009
2022-09-01T05:49:48.947Z,3041
2022-09-01T05:50:48.913Z,3544
2022-09-01T05:51:50.716Z,5527
2022-09-01T05:52:48.948Z,3468
2022-09-01T05:53:48.919Z,4359
2022-09-01T05:54:49.911Z,4353
2022-09-01T05:55:48.953Z,4290
2022-09-01T05:56:48.917Z,3706
2022-09-01T05:57:49.394Z,4182
2022-09-01T05:59:48.926Z,4945
2022-09-01T06:00:48.927Z,5131
2022-09-01T06:01:50.547Z,5640
2022-09-01T06:02:49.194Z,5789
2022-09-01T06:03:48.928Z,5883
2022-09-01T06:04:48.946Z,5782
2022-09-01T06:05:48.923Z,6161
2022-09-01T06:07:06.574Z,6418
2022-09-01T06:07:48.984Z,6418
2022-09-01T06:08:48.922Z,6430
2022-09-01T06:09:48.926Z,4230
2022-09-01T06:10:48.950Z,4294
2022-09-01T06:11:48.928Z,3983
2022-09-01T06:12:48.961Z,4027
2022-09-01T06:13:52.380Z,5240
2022-09-01T06:14:48.930Z,6121
2022-09-01T06:15:48.970Z,6082
2022-09-01T06:16:48.919Z,6239
2022-09-01T06:17:48.938Z,5743
2022-09-01T06:18:48.920Z,5476
2022-09-01T06:19:48.919Z,5597
2022-09-01T06:20:48.926Z,5085
2022-09-01T06:21:48.940Z,4670
2022-09-01T06:22:48.963Z,6816
2022-09-01T06:23:48.940Z,6819
2022-09-01T06:24:53.761Z,6987
2022-09-01T06:25:48.945Z,8371
2022-09-01T06:26:48.927Z,7085
2022-09-01T06:27:48.944Z,8342
2022-09-01T06:28:48.923Z,8347
2022-09-01T06:29:48.931Z,7088
2022-09-01T06:30:48.929Z,6043
2022-09-01T06:31:49.015Z,7474
2022-09-01T06:32:49.397Z,7464
2022-09-01T06:33:48.937Z,5575
2022-09-01T06:34:48.935Z,10183
2022-09-01T06:35:48.954Z,5774
2022-09-01T06:36:48.920Z,7022
2022-09-01T06:37:48.930Z,5772
2022-09-01T06:38:48.943Z,5516
2022-09-01T06:39:48.922Z,5352
2022-09-01T06:40:51.153Z,5505
2022-09-01T06:41:48.943Z,5693
2022-09-01T06:42:48.946Z,5736
2022-09-01T06:43:48.936Z,5815
2022-09-01T06:44:48.935Z,5901
2022-09-01T06:45:48.927Z,6014
2022-09-01T06:46:48.996Z,6941
2022-09-01T06:47:48.932Z,6139
2022-09-01T06:48:48.923Z,6117
2022-09-01T06:49:48.928Z,6823
2022-09-01T06:51:17.122Z,6582
2022-09-01T06:51:48.922Z,7542
2022-09-01T06:53:49.095Z,7894
2022-09-01T06:54:49.008Z,6814
2022-09-01T06:55:48.935Z,6757
2022-09-01T06:56:51.599Z,6506
2022-09-01T06:58:48.909Z,6397
2022-09-01T06:59:48.907Z,6300
2022-09-01T07:00:48.906Z,6320
2022-09-01T07:01:49.339Z,6289
2022-09-01T07:02:48.974Z,6548
2022-09-01T07:03:49.003Z,6869
2022-09-01T07:04:48.926Z,6692
2022-09-01T07:06:02.947Z,6642
2022-09-01T07:07:54.041Z,6805
2022-09-01T07:08:05.398Z,6805
2022-09-01T07:09:20.072Z,6720
2022-09-01T07:09:50.050Z,6611
2022-09-01T07:12:25.301Z,6532
2022-09-01T07:13:06.019Z,6519
2022-09-01T07:14:15.874Z,6499
2022-09-01T07:16:52.436Z,6430
2022-09-01T07:17:48.947Z,6397
2022-09-01T07:18:58.347Z,6423
2022-09-01T07:19:49.082Z,6384
2022-09-01T07:22:07.458Z,6218
2022-09-01T07:23:05.552Z,6195
2022-09-01T07:24:08.053Z,6207
2022-09-01T07:26:00.945Z,6314
2022-09-01T07:26:48.931Z,6300
2022-09-01T07:27:48.943Z,6309
2022-09-01T07:28:48.923Z,6340
2022-09-01T07:29:48.936Z,6469
2022-09-01T07:30:48.928Z,6594
2022-09-01T07:31:49.378Z,6720
2022-09-01T07:32:48.942Z,6882
2022-09-01T07:33:53.903Z,6867
2022-09-01T07:34:49.209Z,6900
2022-09-01T07:38:47.002Z,6972
2022-09-01T07:38:47.748Z,6912
2022-09-01T07:39:48.190Z,6810
2022-09-01T07:39:49.933Z,6720
2022-09-01T07:42:31.433Z,6312
2022-09-01T07:43:48.987Z,6495
2022-09-01T07:44:48.999Z,6650
2022-09-01T07:45:58.305Z,6810
2022-09-01T07:47:19.608Z,6882
2022-09-01T07:47:52.823Z,6904
2022-09-01T07:49:28.857Z,6923
2022-09-01T07:50:12.566Z,7042
2022-09-01T07:51:48.980Z,7066
2022-09-01T07:52:49.012Z,7122
2022-09-01T07:53:48.928Z,7354
2022-09-01T07:54:48.930Z,7477
2022-09-01T07:55:48.944Z,7391
2022-09-01T07:56:48.940Z,7699
2022-09-01T07:57:48.937Z,7837
2022-09-01T07:58:48.955Z,8041
2022-09-01T07:59:48.917Z,7979
2022-09-01T08:02:59.185Z,8576
2022-09-01T08:03:48.914Z,8528
2022-09-01T08:04:48.960Z,8524
2022-09-01T08:05:48.912Z,8720
2022-09-01T08:06:48.914Z,8417
2022-09-01T08:07:52.313Z,8417
2022-09-01T08:08:49.295Z,8954
2022-09-01T08:09:48.914Z,8801
2022-09-01T08:10:49.397Z,8926
2022-09-01T08:12:01.597Z,9184
2022-09-01T08:12:56.279Z,9584
2022-09-01T08:13:52.386Z,9693
2022-09-01T08:14:48.939Z,9940
2022-09-01T08:16:08.508Z,9940
2022-09-01T08:16:52.412Z,10038
2022-09-01T08:17:51.923Z,10163
2022-09-01T08:18:49.665Z,10299
2022-09-01T08:19:48.932Z,10447
2022-09-01T08:20:48.929Z,11096
2022-09-01T08:21:48.949Z,16913
2022-09-01T08:22:48.926Z,17628
2022-09-01T08:23:48.940Z,13248
2022-09-01T08:24:48.936Z,16863
2022-09-01T08:25:49.018Z,12778
2022-09-01T08:26:48.929Z,12618
2022-09-01T08:27:48.921Z,14775
2022-09-01T08:28:55.014Z,15641
2022-09-01T08:29:48.921Z,18277
2022-09-01T08:30:52.073Z,13105
2022-09-01T08:31:48.978Z,14050
2022-09-01T08:32:48.928Z,13282
2022-09-01T08:33:48.939Z,12563
2022-09-01T08:34:48.926Z,14043
2022-09-01T08:35:48.953Z,13505
2022-09-01T08:36:48.924Z,12896
2022-09-01T08:37:48.928Z,13206
2022-09-01T08:38:48.927Z,13068
2022-09-01T08:39:48.928Z,12694
2022-09-01T08:40:49.044Z,14830
2022-09-01T08:41:48.929Z,12511
2022-09-01T08:42:48.930Z,12861
2022-09-01T08:43:48.953Z,13916
2022-09-01T08:44:48.934Z,15023
2022-09-01T08:45:48.928Z,15460
2022-09-01T08:46:48.992Z,13682
2022-09-01T08:48:15.301Z,14526
2022-09-01T08:49:49.146Z,13728
2022-09-01T08:50:51.880Z,14924
2022-09-01T08:51:49.582Z,13667
2022-09-01T08:52:48.926Z,13208
2022-09-01T08:53:48.950Z,12880
2022-09-01T08:54:48.925Z,13119
2022-09-01T08:55:49.546Z,13951
2022-09-01T08:56:48.932Z,14249
2022-09-01T08:57:48.924Z,14008
2022-09-01T08:58:48.980Z,14039
2022-09-01T08:59:49.009Z,15368
2022-09-01T09:00:51.457Z,14832
2022-09-01T09:01:48.956Z,16964
2022-09-01T09:02:48.946Z,16677
2022-09-01T09:03:49.022Z,16585
2022-09-01T09:04:48.937Z,16032
2022-09-01T09:05:48.914Z,16032
2022-09-01T09:06:48.918Z,17235
2022-09-01T09:07:48.981Z,17235
2022-09-01T09:08:48.924Z,18516
2022-09-01T09:09:53.821Z,17316
2022-09-01T09:10:48.927Z,20151
2022-09-01T09:11:48.911Z,20017
2022-09-01T09:12:49.354Z,18511
2022-09-01T09:13:48.931Z,19617
2022-09-01T09:14:48.913Z,20245
2022-09-01T09:15:48.980Z,18896
2022-09-01T09:16:51.615Z,7710
2022-09-01T09:17:48.910Z,8255
2022-09-01T09:18:56.391Z,19595
2022-09-01T09:19:48.917Z,14568
2022-09-01T09:20:48.922Z,8476
2022-09-01T09:21:48.918Z,19908
2022-09-01T09:22:48.929Z,13064
2022-09-01T09:23:48.960Z,11103
2022-09-01T09:24:48.939Z,11809
2022-09-01T09:25:48.966Z,8216
2022-09-01T09:26:48.945Z,6919
2022-09-01T09:27:48.942Z,6395
2022-09-01T09:28:48.945Z,6008
2022-09-01T09:29:48.923Z,6231
2022-09-01T09:30:49.003Z,21679
2022-09-01T09:31:50.487Z,20094
2022-09-01T09:33:11.850Z,19279
2022-09-01T09:33:52.673Z,15923
2022-09-01T09:34:48.932Z,16456
2022-09-01T09:35:48.930Z,20951
2022-09-01T09:36:54.499Z,9145
2022-09-01T09:37:48.930Z,20890
2022-09-01T09:38:48.948Z,20894
2022-09-01T09:39:48.921Z,20848
2022-09-01T09:41:14.008Z,20959
2022-09-01T09:41:50.634Z,21082
2022-09-01T09:42:48.944Z,21224
2022-09-01T09:43:48.948Z,21259
2022-09-01T09:44:49.033Z,21279
2022-09-01T09:45:48.964Z,21316
2022-09-01T09:46:49.065Z,9239
2022-09-01T09:47:49.562Z,8508
2022-09-01T09:48:48.945Z,8633
2022-09-01T09:49:49.066Z,20501
2022-09-01T09:50:48.977Z,20962
2022-09-01T09:51:48.933Z,21242
2022-09-01T09:52:48.931Z,13495
2022-09-01T09:53:48.939Z,9263
2022-09-01T09:54:49.457Z,8543
2022-09-01T09:55:51.717Z,8480
2022-09-01T09:56:48.936Z,8084
2022-09-01T09:57:48.936Z,8633
2022-09-01T09:58:48.946Z,18092
2022-09-01T09:59:58.807Z,20487
2022-09-01T10:00:48.916Z,20570
2022-09-01T10:01:48.963Z,20033
2022-09-01T10:02:48.917Z,7868
2022-09-01T10:03:49.092Z,7225
2022-09-01T10:04:52.588Z,7024
2022-09-01T10:05:48.937Z,6738
2022-09-01T10:06:48.923Z,6425
2022-09-01T10:07:48.929Z,6425
2022-09-01T10:08:48.952Z,5689
2022-09-01T10:09:48.927Z,5374
2022-09-01T10:10:57.605Z,5466
2022-09-01T10:11:48.930Z,5973
2022-09-01T10:12:48.932Z,6515
2022-09-01T10:13:48.943Z,6552
2022-09-01T10:14:52.179Z,6200
2022-09-01T10:15:51.110Z,6390
2022-09-01T10:16:49.115Z,6661
2022-09-01T10:17:48.915Z,6574
2022-09-01T10:18:48.928Z,6163
2022-09-01T10:19:48.913Z,6027
2022-09-01T10:20:49.547Z,5931
2022-09-01T10:21:48.911Z,5977
2022-09-01T10:22:50.624Z,6318
2022-09-01T10:23:48.935Z,6663
2022-09-01T10:24:50.505Z,6873
2022-09-01T10:25:48.961Z,7068
2022-09-01T10:26:48.923Z,7199
2022-09-01T10:27:48.987Z,7135
2022-09-01T10:28:50.646Z,7195
2022-09-01T10:29:48.965Z,7625
2022-09-01T10:30:48.993Z,7962
2022-09-01T10:31:48.924Z,8685
2022-09-01T10:32:54.899Z,10598
2022-09-01T10:33:48.952Z,10613
2022-09-01T10:34:49.382Z,8814
2022-09-01T10:35:48.925Z,8338
2022-09-01T10:36:54.983Z,8111
2022-09-01T10:37:48.924Z,8165
2022-09-01T10:38:53.820Z,8620
2022-09-01T10:39:51.659Z,10133
2022-09-01T10:40:49.970Z,13291
2022-09-01T10:41:48.926Z,20721
2022-09-01T10:42:48.927Z,21388
2022-09-01T10:43:48.951Z,9813
2022-09-01T10:44:50.674Z,9971
2022-09-01T10:45:57.460Z,11326
2022-09-01T10:46:50.469Z,9387
2022-09-01T10:47:48.963Z,9411
2022-09-01T10:48:55.116Z,9514
2022-09-01T10:49:48.928Z,9652
2022-09-01T10:50:49.734Z,9639
2022-09-01T10:51:51.742Z,10340
2022-09-01T10:52:51.250Z,9875
2022-09-01T10:54:08.171Z,8782
2022-09-01T10:55:06.977Z,8692
2022-09-01T10:56:18.983Z,9066
2022-09-01T10:57:08.974Z,9085
2022-09-01T10:58:09.592Z,9190
2022-09-01T10:59:33.820Z,9188
2022-09-01T11:00:34.819Z,9289
2022-09-01T11:01:34.972Z,9193
2022-09-01T11:03:29.636Z,9785
2022-09-01T11:04:07.119Z,9728
2022-09-01T11:05:06.973Z,9639
2022-09-01T11:06:13.173Z,9945
2022-09-01T11:07:14.679Z,9759
2022-09-01T11:08:15.055Z,9759
2022-09-01T11:09:06.969Z,9892
2022-09-01T11:10:11.053Z,9652
2022-09-01T11:11:06.963Z,9811
2022-09-01T11:12:06.956Z,10495
2022-09-01T11:13:06.965Z,11818
2022-09-01T11:14:06.964Z,10974
2022-09-01T11:15:07.185Z,9840
2022-09-01T11:16:06.945Z,9230
2022-09-01T11:17:07.003Z,8843
2022-09-01T11:18:06.975Z,8819
2022-09-01T11:19:06.967Z,8887
2022-09-01T11:20:07.089Z,8989
2022-09-01T11:21:06.961Z,8773
2022-09-01T11:22:06.956Z,8502
2022-09-01T11:23:06.965Z,7955
2022-09-01T11:24:06.961Z,7654
2022-09-01T11:25:11.856Z,7431
2022-09-01T11:27:06.957Z,7133
2022-09-01T11:28:06.947Z,7107
2022-09-01T11:29:06.968Z,7081
2022-09-01T11:30:07.016Z,7076
2022-09-01T11:31:06.951Z,7096
2022-09-01T11:32:07.037Z,6937
2022-09-01T11:33:06.957Z,6865
2022-09-01T11:34:07.066Z,6797
2022-09-01T11:35:06.962Z,6792
2022-09-01T11:36:06.938Z,6777
2022-09-01T11:37:06.954Z,6891
2022-09-01T11:38:07.002Z,7205
2022-09-01T11:39:06.965Z,7376
2022-09-01T11:40:07.179Z,7597
2022-09-01T11:41:06.974Z,7896
2022-09-01T11:42:06.946Z,8200
2022-09-01T11:43:06.956Z,8401
2022-09-01T11:44:06.962Z,8493
2022-09-01T11:45:06.939Z,8620
2022-09-01T11:46:07.007Z,8674
2022-09-01T11:47:09.601Z,8653
2022-09-01T11:48:06.955Z,8622
2022-09-01T11:49:06.972Z,8541
2022-09-01T11:50:06.968Z,8362
2022-09-01T11:51:07.045Z,8246
2022-09-01T11:52:06.937Z,7997
2022-09-01T11:53:06.936Z,7770
2022-09-01T11:54:06.940Z,7621
2022-09-01T11:55:06.930Z,7503
2022-09-01T11:56:06.973Z,7393
2022-09-01T11:57:07.289Z,7334
2022-09-01T11:58:06.936Z,7411
2022-09-01T11:59:06.937Z,7529
2022-09-01T12:00:06.935Z,7601
2022-09-01T12:01:06.951Z,7723
2022-09-01T12:02:07.060Z,7918
2022-09-01T12:03:07.125Z,8146
2022-09-01T12:04:06.945Z,8344
2022-09-01T12:05:06.932Z,8521
2022-09-01T12:06:07.196Z,8591
2022-09-01T12:07:07.590Z,8626
2022-09-01T12:08:06.948Z,8626
2022-09-01T12:09:06.967Z,8793
2022-09-01T12:10:06.933Z,9230
2022-09-01T12:11:06.965Z,10038
2022-09-01T12:12:07.028Z,19983
2022-09-01T12:13:06.949Z,17152
2022-09-01T12:14:11.106Z,19854
2022-09-01T12:15:07.106Z,19384
2022-09-01T12:16:22.217Z,19373
2022-09-01T12:17:06.989Z,18389
2022-09-01T12:18:06.952Z,17482
2022-09-01T12:19:06.961Z,13777
2022-09-01T12:20:07.333Z,14940
2022-09-01T12:21:06.950Z,16520
2022-09-01T12:22:06.946Z,14670
2022-09-01T12:23:06.946Z,13412
2022-09-01T12:24:06.964Z,13575
2022-09-01T12:25:06.937Z,12109
2022-09-01T12:26:06.959Z,9966
2022-09-01T12:27:06.944Z,9365
2022-09-01T12:28:06.946Z,9175
2022-09-01T12:29:06.975Z,9383
2022-09-01T12:30:06.931Z,8714
2022-09-01T12:31:07.684Z,8290
2022-09-01T12:32:07.087Z,8146
2022-09-01T12:33:23.574Z,8086
2022-09-01T12:34:06.964Z,7962
2022-09-01T12:35:11.329Z,7759
2022-09-01T12:36:06.956Z,7616
2022-09-01T12:37:07.271Z,7540
2022-09-01T12:38:09.689Z,7470
2022-09-01T12:39:06.961Z,7387
2022-09-01T12:40:07.743Z,7264
2022-09-01T12:41:07.581Z,7262
2022-09-01T12:42:06.952Z,7197
2022-09-01T12:43:07.877Z,7140
2022-09-01T12:44:07.274Z,7004
2022-09-01T12:45:07.218Z,6819
2022-09-01T12:46:07.015Z,6832
2022-09-01T12:47:06.969Z,6819
2022-09-01T12:48:06.942Z,6869
2022-09-01T12:49:07.340Z,6836
2022-09-01T12:50:06.942Z,6827
2022-09-01T12:51:09.185Z,7044
2022-09-01T12:52:06.943Z,7404
2022-09-01T12:53:08.468Z,7708
2022-09-01T12:54:09.410Z,8032
2022-09-01T12:55:06.983Z,8379
2022-09-01T12:56:06.967Z,8878
2022-09-01T12:57:06.930Z,9708
2022-09-01T12:58:06.937Z,10410
2022-09-01T12:59:11.951Z,9700
2022-09-01T13:00:06.968Z,9352
2022-09-01T13:01:07.231Z,8228
2022-09-01T13:02:07.117Z,7765
2022-09-01T13:03:08.156Z,7675
2022-09-01T13:04:07.070Z,7658
2022-09-01T13:05:06.935Z,7682
2022-09-01T13:06:07.909Z,7623
2022-09-01T13:07:06.928Z,7523
2022-09-01T13:08:07.649Z,7523
2022-09-01T13:09:06.962Z,7015
2022-09-01T13:10:07.276Z,6720
2022-09-01T13:11:06.966Z,6493
2022-09-01T13:12:07.654Z,6458
2022-09-01T13:13:06.947Z,6519
2022-09-01T13:14:06.969Z,6622
2022-09-01T13:15:06.995Z,6648
2022-09-01T13:16:07.007Z,6620
2022-09-01T13:17:10.039Z,6521
2022-09-01T13:18:06.945Z,6397
2022-09-01T13:19:10.882Z,6314
2022-09-01T13:20:06.936Z,6226
2022-09-01T13:21:06.953Z,6193
2022-09-01T13:22:06.950Z,6228
2022-09-01T13:23:06.957Z,6300
2022-09-01T13:24:07.197Z,6364
2022-09-01T13:25:06.933Z,6480
2022-09-01T13:26:07.022Z,6362
2022-09-01T13:27:22.754Z,6301
2022-09-01T13:28:06.950Z,6274
2022-09-01T13:29:06.970Z,6283
2022-09-01T13:30:06.947Z,6300
2022-09-01T13:31:32.679Z,6366
2022-09-01T13:32:22.111Z,6465
2022-09-01T13:33:23.110Z,6559
2022-09-01T13:34:10.948Z,6594
2022-09-01T13:35:06.931Z,6622
2022-09-01T13:36:42.979Z,6653
2022-09-01T13:37:06.936Z,6653
2022-09-01T13:38:06.945Z,6720
2022-09-01T13:39:06.967Z,6812
2022-09-01T13:40:07.253Z,6921
2022-09-01T13:41:06.964Z,6954
2022-09-01T13:42:06.951Z,6976
2022-09-01T13:43:06.978Z,7026
2022-09-01T13:44:06.964Z,7210
2022-09-01T13:45:07.491Z,7404
2022-09-01T13:46:08.207Z,7627
2022-09-01T13:47:30.210Z,7885
2022-09-01T13:48:17.600Z,8143
2022-09-01T13:49:42.035Z,8305
2022-09-01T13:50:09.857Z,8428
2022-09-01T13:51:16.621Z,8639
2022-09-01T13:52:06.942Z,8709
2022-09-01T13:53:07.037Z,8906
2022-09-01T13:54:06.958Z,9247
2022-09-01T13:55:06.929Z,9579
2022-09-01T13:56:06.957Z,9754
2022-09-01T13:57:06.958Z,9737
2022-09-01T13:58:06.952Z,9780
2022-09-01T13:59:06.967Z,10926
2022-09-01T14:00:06.952Z,12754
2022-09-01T14:01:07.028Z,18671
2022-09-01T14:02:06.932Z,15860
2022-09-01T14:03:07.025Z,11652
2022-09-01T14:04:07.002Z,9722
2022-09-01T14:05:06.950Z,9374
2022-09-01T14:06:06.934Z,11475
2022-09-01T14:07:06.931Z,17396
2022-09-01T14:08:06.931Z,17396
2022-09-01T14:09:06.951Z,13766
2022-09-01T14:10:06.931Z,13940
2022-09-01T14:11:06.950Z,12620
2022-09-01T14:12:07.066Z,16260
2022-09-01T14:13:06.934Z,18428
2022-09-01T14:14:06.964Z,18872
2022-09-01T14:15:12.141Z,19244
2022-09-01T14:16:06.941Z,20223
2022-09-01T14:17:06.940Z,18837
2022-09-01T14:18:06.944Z,18343
2022-09-01T14:19:06.959Z,18113
2022-09-01T14:20:06.941Z,19567
2022-09-01T14:21:06.935Z,19272
2022-09-01T14:22:07.007Z,19635
2022-09-01T14:23:06.961Z,19801
2022-09-01T14:24:07.055Z,19622
2022-09-01T14:25:06.942Z,19807
2022-09-01T14:26:06.970Z,19484
2022-09-01T14:27:06.959Z,19325
2022-09-01T14:28:06.951Z,19038
2022-09-01T14:29:06.964Z,18951
2022-09-01T14:30:06.938Z,18885
2022-09-01T14:31:06.945Z,18618
2022-09-01T14:32:06.946Z,18343
2022-09-01T14:33:06.945Z,18361
2022-09-01T14:34:06.959Z,18363
2022-09-01T14:35:06.928Z,18266
2022-09-01T14:36:07.013Z,17960
2022-09-01T14:37:06.950Z,17768
2022-09-01T14:38:06.951Z,17635
2022-09-01T14:39:06.964Z,17385
2022-09-01T14:40:07.039Z,17532
2022-09-01T14:41:06.948Z,17318
2022-09-01T14:42:06.955Z,17259
2022-09-01T14:43:06.957Z,17344
2022-09-01T14:44:06.959Z,17272
2022-09-01T14:45:06.926Z,17281
2022-09-01T14:46:06.928Z,16997
2022-09-01T14:47:06.994Z,17265
2022-09-01T14:48:06.933Z,16456
2022-09-01T14:49:06.957Z,11455
2022-09-01T14:51:06.926Z,13505
2022-09-01T14:52:10.748Z,13267
2022-09-01T14:53:06.951Z,13558
2022-09-01T14:54:06.955Z,14846
2022-09-01T14:55:07.520Z,12163
2022-09-01T14:56:06.947Z,15486
2022-09-01T14:57:37.849Z,15669
2022-09-01T14:58:06.959Z,11724
2022-09-01T14:59:06.956Z,7614
2022-09-01T15:00:06.955Z,7632
2022-09-01T15:01:23.543Z,7664
2022-09-01T15:02:06.956Z,11534
2022-09-01T15:03:06.951Z,13248
2022-09-01T15:04:06.951Z,13433
2022-09-01T15:05:07.002Z,10959
2022-09-01T15:06:06.940Z,7588
2022-09-01T15:07:06.945Z,7162
2022-09-01T15:08:06.994Z,7162
2022-09-01T15:09:06.951Z,7549
2022-09-01T15:10:06.938Z,6480
2022-09-01T15:11:06.961Z,6108
2022-09-01T15:12:06.927Z,5291
2022-09-01T15:13:06.933Z,5291
2022-09-01T15:14:06.969Z,5465
2022-09-01T15:15:06.933Z,5393
2022-09-01T15:16:07.050Z,4965
2022-09-01T15:17:06.927Z,4663
2022-09-01T15:18:06.946Z,4451
2022-09-01T15:19:06.975Z,4466
2022-09-01T15:20:06.955Z,4252
2022-09-01T15:21:06.930Z,3830
2022-09-01T15:22:06.927Z,3623
2022-09-01T15:23:06.927Z,3616
2022-09-01T15:24:06.942Z,3898
2022-09-01T15:25:06.927Z,4268
2022-09-01T15:26:06.955Z,4329
2022-09-01T15:27:06.949Z,4219
2022-09-01T15:28:06.956Z,4305
2022-09-01T15:29:06.958Z,4480
2022-09-01T15:30:06.933Z,4613
2022-09-01T15:31:07.020Z,4678
2022-09-01T15:32:06.958Z,4930
2022-09-01T15:33:06.947Z,4969
2022-09-01T15:34:06.964Z,4928
2022-09-01T15:35:06.932Z,4886
2022-09-01T15:36:06.951Z,4928
2022-09-01T15:37:06.950Z,4963
2022-09-01T15:38:06.948Z,4906
2022-09-01T15:39:06.964Z,4784
2022-09-01T15:40:06.935Z,4678
2022-09-01T15:41:06.982Z,4584
2022-09-01T15:42:07.284Z,4514
2022-09-01T15:43:06.954Z,4495
2022-09-01T15:44:06.973Z,4445
2022-09-01T15:45:06.927Z,4399
2022-09-01T15:46:06.940Z,4377
2022-09-01T15:47:06.944Z,4335
2022-09-01T15:48:06.948Z,4278
2022-09-01T15:49:06.957Z,4143
2022-09-01T15:50:06.933Z,4056
2022-09-01T15:51:07.010Z,4032
2022-09-01T15:52:06.946Z,4071
2022-09-01T15:53:06.950Z,4082
2022-09-01T15:54:07.464Z,4042
2022-09-01T15:55:06.934Z,4008
2022-09-01T15:56:06.969Z,3946
2022-09-01T15:57:06.950Z,3865
2022-09-01T15:58:06.950Z,3767
2022-09-01T15:59:07.238Z,3717
2022-09-01T16:00:06.985Z,3618
2022-09-01T16:01:07.013Z,3500
2022-09-01T16:02:06.999Z,3400
2022-09-01T16:03:06.995Z,3332
2022-09-01T16:04:07.392Z,3317
2022-09-01T16:05:06.940Z,3321
2022-09-01T16:06:06.953Z,3279
2022-09-01T16:07:06.943Z,3190
2022-09-01T16:08:06.945Z,3190
2022-09-01T16:09:07.297Z,2987
2022-09-01T16:10:06.937Z,2851
2022-09-01T16:11:06.967Z,2735
2022-09-01T16:12:06.943Z,2685
2022-09-01T16:13:06.946Z,2674
2022-09-01T16:14:07.195Z,2672
2022-09-01T16:15:07.046Z,2665
2022-09-01T16:16:06.979Z,2608